createdAt,value
2018-11-06T00:01:31.050Z,8.87
2018-11-06T00:04:03.192Z,8.70
2018-11-06T00:06:32.315Z,8.53
2018-11-06T00:09:01.131Z,8.90
2018-11-06T00:11:29.869Z,8.40
2018-11-06T00:13:58.652Z,8.80
2018-11-06T00:16:27.387Z,9.33
2018-11-06T00:18:56.157Z,8.60
2018-11-06T00:21:24.899Z,8.33
2018-11-06T00:23:54.340Z,8.37
2018-11-06T00:26:23.095Z,8.33
2018-11-06T00:28:51.837Z,8.90
2018-11-06T00:31:20.529Z,8.93
2018-11-06T00:33:49.391Z,8.73
2018-11-06T00:36:18.111Z,9.03
2018-11-06T00:38:46.952Z,9.53
2018-11-06T00:41:15.833Z,9.63
2018-11-06T00:43:44.712Z,9.30
2018-11-06T00:46:13.565Z,9.00
2018-11-06T00:48:42.511Z,8.93
2018-11-06T00:51:11.239Z,8.70
2018-11-06T00:53:39.989Z,9.43
2018-11-06T00:56:08.770Z,9.77
2018-11-06T00:58:37.665Z,9.03
2018-11-06T01:01:06.557Z,9.57
2018-11-06T01:03:40.836Z,9.37
2018-11-06T01:06:09.713Z,9.13
2018-11-06T01:08:38.631Z,8.60
2018-11-06T01:11:07.355Z,9.67
2018-11-06T01:13:36.048Z,10.03
2018-11-06T01:16:05.047Z,9.00
2018-11-06T01:18:33.763Z,9.00
2018-11-06T01:21:02.494Z,9.27
2018-11-06T01:23:31.207Z,8.50
2018-11-06T01:25:59.909Z,9.30
2018-11-06T01:28:28.662Z,9.60
2018-11-06T01:31:03.913Z,9.93
2018-11-06T01:33:32.654Z,9.33
2018-11-06T01:36:01.402Z,9.73
2018-11-06T01:38:30.102Z,8.80
2018-11-06T01:40:58.966Z,9.07
2018-11-06T01:43:27.714Z,9.40
2018-11-06T01:45:56.448Z,10.10
2018-11-06T01:48:25.148Z,9.00
2018-11-06T01:50:53.876Z,9.10
2018-11-06T01:53:22.608Z,9.40
2018-11-06T01:55:51.338Z,9.17
2018-11-06T01:58:20.104Z,9.57
2018-11-06T02:00:49.038Z,8.90
2018-11-06T02:03:17.774Z,9.63
2018-11-06T02:05:46.472Z,9.50
2018-11-06T02:08:15.241Z,9.43
2018-11-06T02:10:44.002Z,9.57
2018-11-06T02:13:12.736Z,10.17
2018-11-06T02:15:41.479Z,9.63
2018-11-06T02:18:10.209Z,9.93
2018-11-06T02:20:38.921Z,10.70
2018-11-06T02:23:07.658Z,9.20
2018-11-06T02:25:36.413Z,9.97
2018-11-06T02:28:05.278Z,10.17
2018-11-06T02:30:34.025Z,9.80
2018-11-06T02:33:02.764Z,9.67
2018-11-06T02:35:31.515Z,9.70
2018-11-06T02:38:00.227Z,10.40
2018-11-06T02:40:28.963Z,10.00
2018-11-06T02:42:57.700Z,10.23
2018-11-06T02:45:26.445Z,10.00
2018-11-06T02:47:55.189Z,10.63
2018-11-06T02:50:23.956Z,9.40
2018-11-06T02:52:52.701Z,10.30
2018-11-06T02:55:21.460Z,10.10
2018-11-06T02:57:50.208Z,11.10
2018-11-06T03:00:18.980Z,10.43
2018-11-06T03:02:48.233Z,10.93
2018-11-06T03:05:16.949Z,10.73
2018-11-06T03:07:45.692Z,10.63
2018-11-06T03:10:15.009Z,10.27
2018-11-06T03:12:44.366Z,10.80
2018-11-06T03:15:13.942Z,10.37
2018-11-06T03:17:42.683Z,10.47
2018-11-06T03:20:12.064Z,11.23
2018-11-06T03:22:41.250Z,10.43
2018-11-06T03:25:09.978Z,11.43
2018-11-06T03:27:38.742Z,10.10
2018-11-06T03:30:10.495Z,10.83
2018-11-06T03:32:39.289Z,11.20
2018-11-06T03:35:08.764Z,11.70
2018-11-06T03:37:37.691Z,10.93
2018-11-06T03:40:06.896Z,11.00
2018-11-06T03:42:35.644Z,11.50
2018-11-06T03:45:04.704Z,11.07
2018-11-06T03:47:33.487Z,11.10
2018-11-06T03:50:02.223Z,11.33
2018-11-06T03:52:30.963Z,11.87
2018-11-06T03:54:59.700Z,11.87
2018-11-06T03:57:28.422Z,11.87
2018-11-06T03:59:57.164Z,11.60
2018-11-06T04:02:25.951Z,12.07
2018-11-06T04:04:54.711Z,11.80
2018-11-06T04:07:23.477Z,12.40
2018-11-06T04:09:52.239Z,11.13
2018-11-06T04:12:21.075Z,11.90
2018-11-06T04:14:50.023Z,11.13
2018-11-06T04:17:18.802Z,11.77
2018-11-06T04:19:47.611Z,12.33
2018-11-06T04:22:16.362Z,12.07
2018-11-06T04:24:45.119Z,12.10
2018-11-06T04:27:13.870Z,11.83
2018-11-06T04:29:42.620Z,12.10
2018-11-06T04:32:11.402Z,12.67
2018-11-06T04:34:40.208Z,11.97
2018-11-06T04:37:08.949Z,12.80
2018-11-06T04:39:37.705Z,13.23
2018-11-06T04:42:06.476Z,11.80
2018-11-06T04:44:35.225Z,13.23
2018-11-06T04:47:03.987Z,12.30
2018-11-06T04:49:32.702Z,13.60
2018-11-06T04:52:01.468Z,13.07
2018-11-06T04:54:30.212Z,13.40
2018-11-06T04:56:58.976Z,12.03
2018-11-06T04:59:27.708Z,13.30
2018-11-06T05:01:56.471Z,12.93
2018-11-06T05:04:25.166Z,13.40
2018-11-06T05:06:54.154Z,13.70
2018-11-06T05:09:22.819Z,13.40
2018-11-06T05:11:51.534Z,12.70
2018-11-06T05:14:20.471Z,13.87
2018-11-06T05:16:49.716Z,13.90
2018-11-06T05:19:18.455Z,13.73
2018-11-06T05:21:47.294Z,14.63
2018-11-06T05:24:16.025Z,13.60
2018-11-06T05:26:44.728Z,14.63
2018-11-06T05:29:13.529Z,15.27
2018-11-06T05:31:42.261Z,14.97
2018-11-06T05:34:11.006Z,14.63
2018-11-06T05:36:39.759Z,15.67
2018-11-06T05:39:10.276Z,14.60
2018-11-06T05:41:38.895Z,14.90
2018-11-06T05:44:07.678Z,15.93
2018-11-06T05:46:36.346Z,15.67
2018-11-06T05:49:05.220Z,16.33
2018-11-06T05:51:34.050Z,15.83
2018-11-06T05:54:02.973Z,15.83
2018-11-06T05:56:31.683Z,15.03
2018-11-06T05:59:00.413Z,15.57
2018-11-06T06:01:29.187Z,16.73
2018-11-06T06:03:57.921Z,17.17
2018-11-06T06:06:26.693Z,17.13
2018-11-06T06:08:55.587Z,16.30
2018-11-06T06:11:24.343Z,16.20
2018-11-06T06:13:53.074Z,16.17
2018-11-06T06:16:21.820Z,16.33
2018-11-06T06:18:50.549Z,16.27
2018-11-06T06:21:19.349Z,17.43
2018-11-06T06:23:48.255Z,17.07
2018-11-06T06:26:30.252Z,16.67
2018-11-06T06:28:59.830Z,17.00
2018-11-06T06:31:28.594Z,17.30
2018-11-06T06:33:57.416Z,17.37
2018-11-06T06:36:26.197Z,17.37
2018-11-06T06:38:55.030Z,16.93
2018-11-06T06:41:23.810Z,17.30
2018-11-06T06:43:52.562Z,16.20
2018-11-06T06:46:21.472Z,17.77
2018-11-06T06:48:50.412Z,16.57
2018-11-06T06:51:19.365Z,17.27
2018-11-06T06:53:48.313Z,16.57
2018-11-06T06:56:17.046Z,17.77
2018-11-06T06:58:45.823Z,17.17
2018-11-06T07:01:14.627Z,17.93
2018-11-06T07:03:43.361Z,16.57
2018-11-06T07:06:12.118Z,17.40
2018-11-06T07:08:40.900Z,16.53
2018-11-06T07:11:09.657Z,17.53
2018-11-06T07:13:38.476Z,17.97
2018-11-06T07:16:07.261Z,17.60
2018-11-06T07:18:36.184Z,16.73
2018-11-06T07:21:05.416Z,17.33
2018-11-06T07:23:34.155Z,16.60
2018-11-06T07:26:02.866Z,16.73
2018-11-06T07:28:31.653Z,17.50
2018-11-06T07:31:00.356Z,17.37
2018-11-06T07:33:29.130Z,17.33
2018-11-06T07:35:57.998Z,16.93
2018-11-06T07:38:26.695Z,17.63
2018-11-06T07:40:55.548Z,16.47
2018-11-06T07:43:24.290Z,16.90
2018-11-06T07:45:55.131Z,16.90
2018-11-06T07:48:26.251Z,16.53
2018-11-06T07:50:55.076Z,16.50
2018-11-06T07:53:23.860Z,17.10
2018-11-06T07:55:52.709Z,16.27
2018-11-06T07:58:21.573Z,16.43
2018-11-06T08:00:50.466Z,16.70
2018-11-06T08:03:19.315Z,16.33
2018-11-06T08:05:48.285Z,16.03
2018-11-06T08:08:17.116Z,16.53
2018-11-06T08:10:45.939Z,16.00
2018-11-06T08:13:14.765Z,16.60
2018-11-06T08:15:43.549Z,17.47
2018-11-06T08:18:12.253Z,16.93
2018-11-06T08:20:41.032Z,16.27
2018-11-06T08:23:09.743Z,15.77
2018-11-06T08:25:38.515Z,17.03
2018-11-06T08:28:07.245Z,17.03
2018-11-06T08:30:36.080Z,16.40
2018-11-06T08:33:04.818Z,16.80
2018-11-06T08:35:33.548Z,16.13
2018-11-06T08:38:02.257Z,15.90
2018-11-06T08:40:30.993Z,16.13
2018-11-06T08:42:59.754Z,14.83
2018-11-06T08:45:28.589Z,16.77
2018-11-06T08:47:57.495Z,16.80
2018-11-06T08:50:26.313Z,16.07
2018-11-06T08:52:55.198Z,15.07
2018-11-06T08:55:23.988Z,15.67
2018-11-06T08:57:52.866Z,16.60
2018-11-06T09:00:21.634Z,16.37
2018-11-06T09:02:50.420Z,15.43
2018-11-06T09:05:19.492Z,16.33
2018-11-06T09:07:48.402Z,16.30
2018-11-06T09:10:17.602Z,15.63
2018-11-06T09:12:46.474Z,16.13
2018-11-06T09:15:16.176Z,15.47
2018-11-06T09:17:45.201Z,15.63
2018-11-06T09:20:15.004Z,14.93
2018-11-06T09:22:43.766Z,15.77
2018-11-06T09:25:13.557Z,14.47
2018-11-06T09:27:42.894Z,15.50
2018-11-06T09:30:19.272Z,15.37
2018-11-06T09:32:48.234Z,16.13
2018-11-06T09:35:17.051Z,14.80
2018-11-06T09:37:46.151Z,14.87
2018-11-06T09:40:16.464Z,15.77
2018-11-06T09:42:45.234Z,15.67
2018-11-06T09:45:14.227Z,15.50
2018-11-06T09:47:42.937Z,16.10
2018-11-06T09:50:17.342Z,14.73
2018-11-06T09:52:46.746Z,15.10
2018-11-06T09:55:16.190Z,15.53
2018-11-06T09:57:45.349Z,15.27
2018-11-06T10:00:15.956Z,15.07
2018-11-06T10:02:44.641Z,14.30
2018-11-06T10:05:14.035Z,14.77
2018-11-06T10:07:42.876Z,14.70
2018-11-06T10:10:13.292Z,14.17
2018-11-06T10:12:42.403Z,14.10
2018-11-06T10:15:13.219Z,15.03
2018-11-06T10:17:43.157Z,14.93
2018-11-06T10:20:12.939Z,13.73
2018-11-06T10:22:41.733Z,14.27
2018-11-06T10:25:10.458Z,14.13
2018-11-06T10:27:40.194Z,14.57
2018-11-06T10:30:11.074Z,13.90
2018-11-06T10:32:39.813Z,14.07
2018-11-06T10:35:09.061Z,13.83
2018-11-06T10:37:37.916Z,14.03
2018-11-06T10:40:09.398Z,12.87
2018-11-06T10:42:38.205Z,13.53
2018-11-06T10:45:07.696Z,12.90
2018-11-06T10:47:36.669Z,12.73
2018-11-06T10:50:05.948Z,13.57
2018-11-06T10:52:34.734Z,12.83
2018-11-06T10:55:03.676Z,12.57
2018-11-06T10:57:32.444Z,14.47
2018-11-06T11:00:01.253Z,12.70
2018-11-06T11:02:35.517Z,13.10
2018-11-06T11:05:04.646Z,13.10
2018-11-06T11:07:33.369Z,14.50
2018-11-06T11:10:02.164Z,12.97
2018-11-06T11:12:30.997Z,13.40
2018-11-06T11:14:59.741Z,13.97
2018-11-06T11:17:28.630Z,13.47
2018-11-06T11:19:57.451Z,13.40
2018-11-06T11:22:26.162Z,13.53
2018-11-06T11:24:54.921Z,13.43
2018-11-06T11:27:23.663Z,13.43
2018-11-06T11:29:52.484Z,12.77
2018-11-06T11:32:21.232Z,12.50
2018-11-06T11:34:50.014Z,12.97
2018-11-06T11:37:18.782Z,13.53
2018-11-06T11:39:47.608Z,12.93
2018-11-06T11:42:16.355Z,12.73
2018-11-06T11:44:45.508Z,13.90
2018-11-06T11:47:14.285Z,14.53
2018-11-06T11:49:43.193Z,13.27
2018-11-06T11:52:11.931Z,12.77
2018-11-06T11:54:40.753Z,12.97
2018-11-06T11:57:09.483Z,13.27
2018-11-06T11:59:38.423Z,12.73
2018-11-06T12:02:07.226Z,13.73
2018-11-06T12:04:36.341Z,13.17
2018-11-06T12:07:05.167Z,13.33
2018-11-06T12:09:33.923Z,13.80
2018-11-06T12:12:02.701Z,13.07
2018-11-06T12:14:31.517Z,13.20
2018-11-06T12:17:00.281Z,12.83
2018-11-06T12:19:29.052Z,12.97
2018-11-06T12:21:57.787Z,13.93
2018-11-06T12:24:26.638Z,13.10
2018-11-06T12:26:55.325Z,14.17
2018-11-06T12:29:24.935Z,13.00
2018-11-06T12:31:53.824Z,13.90
2018-11-06T12:34:22.590Z,13.73
2018-11-06T12:36:51.353Z,13.47
2018-11-06T12:39:20.132Z,13.77
2018-11-06T12:41:49.039Z,14.13
2018-11-06T12:44:17.795Z,13.67
2018-11-06T12:46:46.600Z,14.23
2018-11-06T12:49:15.343Z,12.30
2018-11-06T12:51:44.103Z,14.30
2018-11-06T12:54:12.914Z,13.87
2018-11-06T12:56:41.794Z,14.03
2018-11-06T12:59:10.761Z,13.37
2018-11-06T13:01:39.617Z,13.83
2018-11-06T13:04:08.371Z,14.20
2018-11-06T13:06:37.116Z,13.40
2018-11-06T13:09:08.146Z,13.27
2018-11-06T13:11:38.126Z,13.57
2018-11-06T13:14:07.302Z,13.70
2018-11-06T13:16:36.374Z,14.23
2018-11-06T13:19:05.358Z,14.07
2018-11-06T13:21:34.164Z,13.27
2018-11-06T13:24:03.086Z,13.57
2018-11-06T13:26:32.119Z,13.53
2018-11-06T13:29:00.814Z,13.73
2018-11-06T13:31:29.741Z,14.00
2018-11-06T13:33:58.511Z,12.70
2018-11-06T13:36:27.307Z,13.73
2018-11-06T13:38:56.137Z,13.23
2018-11-06T13:41:24.921Z,13.90
2018-11-06T13:43:53.904Z,13.37
2018-11-06T13:46:22.537Z,14.00
2018-11-06T13:48:51.328Z,13.47
2018-11-06T13:51:20.083Z,13.70
2018-11-06T13:53:48.878Z,14.40
2018-11-06T13:56:17.693Z,13.97
2018-11-06T13:58:46.471Z,13.10
2018-11-06T14:01:15.192Z,14.83
2018-11-06T14:03:44.059Z,13.73
2018-11-06T14:06:13.031Z,14.23
2018-11-06T14:08:41.826Z,14.17
2018-11-06T14:11:10.627Z,14.97
2018-11-06T14:13:39.427Z,13.53
2018-11-06T14:16:08.195Z,13.57
2018-11-06T14:18:36.963Z,14.80
2018-11-06T14:21:05.827Z,13.93
2018-11-06T14:23:34.604Z,13.43
2018-11-06T14:26:03.550Z,14.03
2018-11-06T14:28:32.343Z,14.97
2018-11-06T14:31:01.174Z,13.70
2018-11-06T14:33:29.995Z,14.13
2018-11-06T14:35:58.854Z,15.00
2018-11-06T14:38:27.600Z,14.30
2018-11-06T14:40:56.329Z,14.33
2018-11-06T14:43:25.082Z,14.43
2018-11-06T14:45:53.978Z,14.73
2018-11-06T14:48:22.874Z,14.50
2018-11-06T14:50:51.594Z,15.10
2018-11-06T14:53:20.410Z,15.23
2018-11-06T14:55:49.294Z,15.37
2018-11-06T14:58:18.013Z,15.50
2018-11-06T15:00:46.766Z,15.23
2018-11-06T15:03:15.566Z,15.47
2018-11-06T15:05:44.493Z,15.00
2018-11-06T15:08:13.128Z,14.53
2018-11-06T15:10:41.884Z,14.47
2018-11-06T15:13:10.646Z,15.30
2018-11-06T15:15:39.718Z,14.47
2018-11-06T15:18:08.592Z,15.30
2018-11-06T15:20:37.432Z,14.37
2018-11-06T15:23:06.203Z,14.23
2018-11-06T15:25:35.002Z,14.07
2018-11-06T15:28:03.815Z,15.47
2018-11-06T15:30:32.601Z,15.13
2018-11-06T15:33:01.421Z,14.77
2018-11-06T15:35:30.172Z,14.70
2018-11-06T15:37:58.933Z,14.70
2018-11-06T15:40:27.709Z,15.20
2018-11-06T15:42:56.485Z,15.57
2018-11-06T15:45:25.262Z,14.53
2018-11-06T15:47:54.017Z,15.67
2018-11-06T15:50:22.889Z,14.93
2018-11-06T15:52:52.178Z,14.73
2018-11-06T15:55:21.046Z,16.13
2018-11-06T15:57:49.885Z,16.53
2018-11-06T16:00:20.586Z,16.00
2018-11-06T16:02:49.819Z,16.90
2018-11-06T16:05:18.647Z,15.60
2018-11-06T16:07:47.928Z,16.10
2018-11-06T16:10:19.063Z,14.50
2018-11-06T16:12:47.864Z,16.37
2018-11-06T16:15:16.675Z,15.40
2018-11-06T16:17:45.445Z,16.80
2018-11-06T16:20:16.626Z,15.90
2018-11-06T16:22:45.617Z,15.23
2018-11-06T16:25:15.576Z,15.10
2018-11-06T16:27:44.733Z,15.27
2018-11-06T16:30:14.960Z,15.53
2018-11-06T16:32:43.927Z,16.33
2018-11-06T16:35:14.929Z,16.23
2018-11-06T16:37:44.190Z,16.17
2018-11-06T16:40:13.592Z,15.63
2018-11-06T16:42:43.242Z,15.70
2018-11-06T16:45:14.922Z,15.50
2018-11-06T16:47:44.710Z,16.20
2018-11-06T16:50:14.517Z,16.23
2018-11-06T16:52:43.318Z,16.27
2018-11-06T16:55:12.364Z,16.33
2018-11-06T16:57:42.143Z,15.63
2018-11-06T17:00:13.307Z,15.83
2018-11-06T17:02:42.631Z,16.37
2018-11-06T17:05:12.664Z,16.03
2018-11-06T17:07:41.776Z,16.03
2018-11-06T17:10:11.838Z,15.97
2018-11-06T17:12:40.578Z,16.83
2018-11-06T17:15:15.513Z,16.57
2018-11-06T17:17:44.878Z,15.20
2018-11-06T17:20:14.266Z,15.80
2018-11-06T17:22:43.000Z,15.63
2018-11-06T17:25:13.131Z,15.23
2018-11-06T17:27:41.930Z,17.53
2018-11-06T17:30:12.757Z,16.90
2018-11-06T17:32:41.855Z,18.37
2018-11-06T17:35:12.154Z,17.73
2018-11-06T17:37:41.265Z,17.37
2018-11-06T17:40:13.744Z,17.60
2018-11-06T17:42:42.857Z,17.27
2018-11-06T17:45:15.559Z,17.27
2018-11-06T17:47:44.469Z,17.27
2018-11-06T17:50:14.392Z,16.63
2018-11-06T17:52:43.144Z,17.83
2018-11-06T17:55:13.293Z,17.73
2018-11-06T17:57:42.115Z,16.70
2018-11-06T18:00:13.021Z,17.77
2018-11-06T18:02:42.123Z,17.90
2018-11-06T18:05:12.072Z,18.17
2018-11-06T18:07:41.507Z,17.17
2018-11-06T18:10:22.813Z,18.80
2018-11-06T18:12:52.429Z,17.83
2018-11-06T18:15:21.149Z,16.50
2018-11-06T18:17:50.097Z,17.27
2018-11-06T18:20:18.737Z,16.77
2018-11-06T18:22:47.629Z,17.33
2018-11-06T18:25:16.809Z,16.30
2018-11-06T18:27:45.380Z,18.33
2018-11-06T18:30:16.044Z,16.90
2018-11-06T18:32:44.819Z,16.67
2018-11-06T18:35:14.714Z,17.73
2018-11-06T18:37:43.553Z,17.23
2018-11-06T18:40:14.946Z,17.23
2018-11-06T18:42:44.670Z,17.43
2018-11-06T18:45:14.164Z,17.57
2018-11-06T18:47:43.068Z,17.27
2018-11-06T18:50:13.274Z,18.00
2018-11-06T18:52:43.324Z,17.83
2018-11-06T18:55:12.092Z,16.83
2018-11-06T18:57:41.072Z,17.70
2018-11-06T19:00:13.235Z,18.07
2018-11-06T19:02:42.978Z,17.47
2018-11-06T19:05:11.787Z,17.90
2018-11-06T19:07:40.569Z,17.07
2018-11-06T19:10:10.739Z,17.17
2018-11-06T19:12:39.670Z,17.47
2018-11-06T19:15:10.958Z,16.47
2018-11-06T19:17:39.982Z,17.13
2018-11-06T19:20:09.694Z,16.83
2018-11-06T19:22:38.635Z,17.13
2018-11-06T19:25:08.298Z,17.20
2018-11-06T19:27:37.238Z,16.63
2018-11-06T19:30:09.939Z,17.53
2018-11-06T19:32:39.271Z,17.87
2018-11-06T19:35:08.075Z,17.60
2018-11-06T19:37:36.951Z,18.73
2018-11-06T19:40:07.611Z,17.50
2018-11-06T19:42:36.594Z,18.17
2018-11-06T19:45:05.935Z,17.87
2018-11-06T19:47:34.744Z,18.23
2018-11-06T19:50:03.585Z,17.83
2018-11-06T19:52:32.438Z,17.73
2018-11-06T19:55:01.234Z,17.33
2018-11-06T19:57:30.026Z,18.97
2018-11-06T19:59:58.832Z,16.37
2018-11-06T20:02:27.548Z,17.47
2018-11-06T20:04:57.443Z,17.47
2018-11-06T20:07:26.193Z,17.47
2018-11-06T20:09:55.045Z,18.33
2018-11-06T20:12:23.857Z,18.00
2018-11-06T20:14:52.602Z,17.60
2018-11-06T20:17:21.380Z,17.23
2018-11-06T20:19:50.154Z,17.53
2018-11-06T20:22:18.912Z,18.13
2018-11-06T20:24:47.667Z,17.27
2018-11-06T20:27:16.484Z,17.80
2018-11-06T20:29:45.229Z,17.93
2018-11-06T20:32:13.950Z,17.13
2018-11-06T20:34:42.705Z,17.73
2018-11-06T20:37:11.550Z,16.67
2018-11-06T20:39:40.328Z,17.13
2018-11-06T20:42:09.079Z,17.23
2018-11-06T20:44:37.822Z,17.63
2018-11-06T20:47:06.556Z,17.43
2018-11-06T20:49:35.335Z,17.23
2018-11-06T20:52:04.334Z,17.57
2018-11-06T20:54:33.196Z,17.93
2018-11-06T20:57:01.999Z,18.93
2018-11-06T20:59:30.737Z,18.13
2018-11-06T21:01:59.476Z,17.53
2018-11-06T21:04:28.536Z,18.17
2018-11-06T21:06:57.485Z,17.83
2018-11-06T21:09:26.326Z,17.73
2018-11-06T21:11:55.304Z,18.40
2018-11-06T21:14:23.987Z,19.67
2018-11-06T21:16:52.715Z,17.77
2018-11-06T21:19:21.537Z,19.23
2018-11-06T21:21:50.475Z,19.67
2018-11-06T21:24:19.205Z,18.20
2018-11-06T21:26:48.302Z,18.93
2018-11-06T21:29:16.907Z,18.43
2018-11-06T21:31:45.685Z,18.90
2018-11-06T21:34:14.441Z,18.67
2018-11-06T21:36:43.188Z,18.73
2018-11-06T21:39:11.987Z,19.07
2018-11-06T21:41:40.703Z,19.73
2018-11-06T21:44:09.433Z,19.00
2018-11-06T21:46:38.252Z,19.43
2018-11-06T21:49:06.968Z,20.23
2018-11-06T21:51:35.763Z,19.37
2018-11-06T21:54:05.162Z,20.03
2018-11-06T21:56:33.933Z,19.23
2018-11-06T21:59:02.706Z,18.93
2018-11-06T22:01:31.462Z,19.17
2018-11-06T22:04:00.230Z,18.97
2018-11-06T22:06:29.003Z,19.50
2018-11-06T22:08:57.730Z,19.00
2018-11-06T22:11:26.475Z,17.93
2018-11-06T22:13:55.368Z,18.23
2018-11-06T22:16:24.121Z,18.33
2018-11-06T22:18:52.914Z,17.83
2018-11-06T22:21:21.641Z,19.00
2018-11-06T22:23:50.416Z,19.27
2018-11-06T22:26:19.186Z,18.67
2018-11-06T22:28:47.937Z,18.67
2018-11-06T22:31:16.780Z,19.13
2018-11-06T22:33:45.500Z,18.27
2018-11-06T22:36:14.224Z,18.33
2018-11-06T22:38:42.980Z,17.97
2018-11-06T22:41:11.722Z,18.60
2018-11-06T22:43:40.469Z,18.97
2018-11-06T22:46:09.232Z,18.80
2018-11-06T22:48:37.975Z,19.73
2018-11-06T22:51:06.889Z,18.93
2018-11-06T22:53:35.606Z,18.27
2018-11-06T22:56:04.387Z,19.27
2018-11-06T22:58:33.134Z,18.47
2018-11-06T23:01:07.199Z,19.03
2018-11-06T23:03:35.954Z,18.73
2018-11-06T23:06:04.719Z,18.77
2018-11-06T23:08:33.449Z,19.17
2018-11-06T23:11:02.201Z,19.23
2018-11-06T23:13:30.991Z,19.00
2018-11-06T23:15:59.854Z,19.10
2018-11-06T23:18:28.602Z,18.60
2018-11-06T23:20:57.368Z,17.73
2018-11-06T23:23:26.093Z,19.03
2018-11-06T23:25:54.825Z,18.33
2018-11-06T23:28:23.619Z,18.13
2018-11-06T23:30:52.365Z,17.87
2018-11-06T23:33:21.119Z,18.77
2018-11-06T23:35:50.005Z,18.23
2018-11-06T23:38:18.719Z,18.97
2018-11-06T23:40:47.456Z,19.07
2018-11-06T23:43:16.207Z,17.77
2018-11-06T23:45:44.994Z,18.43
2018-11-06T23:48:13.779Z,18.30
2018-11-06T23:50:42.525Z,18.47
2018-11-06T23:53:11.286Z,17.80
2018-11-06T23:55:40.031Z,17.50
2018-11-06T23:58:08.810Z,18.77
